sensor_id;sensor_type;location;lat;lon;timestamp;temperature;humidity
4107;DHT22;21906;50.812;7.132;2023-03-26T00:00:10;11.70;59.50
4107;DHT22;21906;50.812;7.132;2023-03-26T00:02:37;11.60;59.50
4107;DHT22;21906;50.812;7.132;2023-03-26T00:05:05;11.60;59.40
4107;DHT22;21906;50.812;7.132;2023-03-26T00:07:31;11.60;59.40
4107;DHT22;21906;50.812;7.132;2023-03-26T00:09:57;11.60;59.60
4107;DHT22;21906;50.812;7.132;2023-03-26T00:12:24;11.70;59.50
4107;DHT22;21906;50.812;7.132;2023-03-26T00:14:50;11.70;59.40
4107;DHT22;21906;50.812;7.132;2023-03-26T00:17:17;11.70;59.50
4107;DHT22;21906;50.812;7.132;2023-03-26T00:19:43;11.70;59.40
4107;DHT22;21906;50.812;7.132;2023-03-26T00:22:10;11.70;59.60
4107;DHT22;21906;50.812;7.132;2023-03-26T00:24:38;11.70;59.70
4107;DHT22;21906;50.812;7.132;2023-03-26T00:27:04;11.60;59.70
4107;DHT22;21906;50.812;7.132;2023-03-26T00:29:30;11.60;59.90
4107;DHT22;21906;50.812;7.132;2023-03-26T00:31:57;11.60;60.00
4107;DHT22;21906;50.812;7.132;2023-03-26T00:34:23;11.60;60.00
4107;DHT22;21906;50.812;7.132;2023-03-26T00:36:49;11.50;60.40
4107;DHT22;21906;50.812;7.132;2023-03-26T00:39:20;11.60;60.30
4107;DHT22;21906;50.812;7.132;2023-03-26T00:41:48;11.60;60.20
4107;DHT22;21906;50.812;7.132;2023-03-26T00:44:18;11.60;60.10
4107;DHT22;21906;50.812;7.132;2023-03-26T00:46:44;11.60;60.20
4107;DHT22;21906;50.812;7.132;2023-03-26T00:49:09;11.50;60.50
4107;DHT22;21906;50.812;7.132;2023-03-26T00:51:35;11.50;60.60
4107;DHT22;21906;50.812;7.132;2023-03-26T00:54:01;11.50;60.70
4107;DHT22;21906;50.812;7.132;2023-03-26T00:56:27;11.50;60.70
4107;DHT22;21906;50.812;7.132;2023-03-26T00:58:53;11.50;60.80
4107;DHT22;21906;50.812;7.132;2023-03-26T01:01:22;11.50;61.10
4107;DHT22;21906;50.812;7.132;2023-03-26T01:03:53;11.50;61.70
4107;DHT22;21906;50.812;7.132;2023-03-26T01:06:29;11.50;61.70
4107;DHT22;21906;50.812;7.132;2023-03-26T01:09:06;11.50;61.50
4107;DHT22;21906;50.812;7.132;2023-03-26T01:11:36;11.40;61.50
4107;DHT22;21906;50.812;7.132;2023-03-26T01:14:10;11.50;61.40
4107;DHT22;21906;50.812;7.132;2023-03-26T01:16:42;11.50;61.80
4107;DHT22;21906;50.812;7.132;2023-03-26T01:22:12;11.40;61.50
4107;DHT22;21906;50.812;7.132;2023-03-26T01:24:39;11.40;61.40
4107;DHT22;21906;50.812;7.132;2023-03-26T01:27:13;11.40;61.50
4107;DHT22;21906;50.812;7.132;2023-03-26T01:43:23;11.20;63.10
4107;DHT22;21906;50.812;7.132;2023-03-26T01:45:51;11.10;63.30
4107;DHT22;21906;50.812;7.132;2023-03-26T01:48:17;11.00;63.60
4107;DHT22;21906;50.812;7.132;2023-03-26T01:50:43;11.00;63.70
4107;DHT22;21906;50.812;7.132;2023-03-26T01:53:10;11.00;63.80
4107;DHT22;21906;50.812;7.132;2023-03-26T01:56:10;11.10;63.70
4107;DHT22;21906;50.812;7.132;2023-03-26T02:01:48;11.10;64.00
4107;DHT22;21906;50.812;7.132;2023-03-26T02:07:36;11.10;64.10
4107;DHT22;21906;50.812;7.132;2023-03-26T02:10:12;11.10;64.10
4107;DHT22;21906;50.812;7.132;2023-03-26T02:12:41;11.10;64.00
4107;DHT22;21906;50.812;7.132;2023-03-26T02:15:07;11.20;63.70
4107;DHT22;21906;50.812;7.132;2023-03-26T02:17:34;11.20;63.60
4107;DHT22;21906;50.812;7.132;2023-03-26T02:19:59;11.30;63.40
4107;DHT22;21906;50.812;7.132;2023-03-26T02:22:36;11.30;63.20
4107;DHT22;21906;50.812;7.132;2023-03-26T02:25:10;11.30;63.20
4107;DHT22;21906;50.812;7.132;2023-03-26T02:27:36;11.40;63.20
4107;DHT22;21906;50.812;7.132;2023-03-26T02:30:07;11.50;63.00
4107;DHT22;21906;50.812;7.132;2023-03-26T02:32:33;11.50;63.10
4107;DHT22;21906;50.812;7.132;2023-03-26T02:34:59;11.40;63.10
4107;DHT22;21906;50.812;7.132;2023-03-26T02:37:25;11.40;63.00
4107;DHT22;21906;50.812;7.132;2023-03-26T02:39:51;11.50;62.90
4107;DHT22;21906;50.812;7.132;2023-03-26T02:42:17;11.50;62.70
4107;DHT22;21906;50.812;7.132;2023-03-26T02:44:42;11.50;62.80
4107;DHT22;21906;50.812;7.132;2023-03-26T02:47:08;11.50;62.80
4107;DHT22;21906;50.812;7.132;2023-03-26T02:49:34;11.50;63.00
4107;DHT22;21906;50.812;7.132;2023-03-26T02:52:00;11.50;62.80
4107;DHT22;21906;50.812;7.132;2023-03-26T02:54:31;11.50;62.80
4107;DHT22;21906;50.812;7.132;2023-03-26T02:56:56;11.60;62.80
4107;DHT22;21906;50.812;7.132;2023-03-26T02:59:22;11.60;62.70
4107;DHT22;21906;50.812;7.132;2023-03-26T03:01:47;11.60;62.60
4107;DHT22;21906;50.812;7.132;2023-03-26T03:04:13;11.60;62.70
4107;DHT22;21906;50.812;7.132;2023-03-26T03:06:39;11.60;62.80
4107;DHT22;21906;50.812;7.132;2023-03-26T03:09:06;11.60;62.90
4107;DHT22;21906;50.812;7.132;2023-03-26T03:11:35;11.70;62.90
4107;DHT22;21906;50.812;7.132;2023-03-26T03:14:01;11.70;62.90
4107;DHT22;21906;50.812;7.132;2023-03-26T03:16:27;11.60;62.80
4107;DHT22;21906;50.812;7.132;2023-03-26T03:18:53;11.60;62.90
4107;DHT22;21906;50.812;7.132;2023-03-26T03:21:25;11.60;63.30
4107;DHT22;21906;50.812;7.132;2023-03-26T03:23:51;11.60;63.80
4107;DHT22;21906;50.812;7.132;2023-03-26T03:26:19;11.60;64.00
4107;DHT22;21906;50.812;7.132;2023-03-26T03:28:52;11.60;63.90
4107;DHT22;21906;50.812;7.132;2023-03-26T03:31:19;11.60;64.00
4107;DHT22;21906;50.812;7.132;2023-03-26T03:33:45;11.50;64.10
4107;DHT22;21906;50.812;7.132;2023-03-26T03:36:13;11.50;64.20
4107;DHT22;21906;50.812;7.132;2023-03-26T03:38:40;11.50;64.50
4107;DHT22;21906;50.812;7.132;2023-03-26T03:41:07;11.50;64.70
4107;DHT22;21906;50.812;7.132;2023-03-26T03:43:33;11.50;64.70
4107;DHT22;21906;50.812;7.132;2023-03-26T03:45:59;11.50;65.10
4107;DHT22;21906;50.812;7.132;2023-03-26T03:48:25;11.50;65.00
4107;DHT22;21906;50.812;7.132;2023-03-26T03:50:52;11.40;64.90
4107;DHT22;21906;50.812;7.132;2023-03-26T03:53:18;11.40;64.90
4107;DHT22;21906;50.812;7.132;2023-03-26T03:55:44;11.40;65.30
4107;DHT22;21906;50.812;7.132;2023-03-26T03:58:18;11.40;65.50
4107;DHT22;21906;50.812;7.132;2023-03-26T04:00:47;11.40;65.80
4107;DHT22;21906;50.812;7.132;2023-03-26T04:03:13;11.30;66.20
4107;DHT22;21906;50.812;7.132;2023-03-26T04:05:39;11.30;66.50
4107;DHT22;21906;50.812;7.132;2023-03-26T04:08:05;11.20;67.00
4107;DHT22;21906;50.812;7.132;2023-03-26T04:10:31;11.20;67.50
4107;DHT22;21906;50.812;7.132;2023-03-26T04:12:57;11.20;68.10
4107;DHT22;21906;50.812;7.132;2023-03-26T04:15:22;11.20;68.80
4107;DHT22;21906;50.812;7.132;2023-03-26T04:17:48;11.10;69.00
4107;DHT22;21906;50.812;7.132;2023-03-26T04:20:13;11.10;69.00
4107;DHT22;21906;50.812;7.132;2023-03-26T04:22:41;10.90;70.40
4107;DHT22;21906;50.812;7.132;2023-03-26T04:25:09;10.90;70.60
4107;DHT22;21906;50.812;7.132;2023-03-26T04:27:35;10.90;70.80
4107;DHT22;21906;50.812;7.132;2023-03-26T04:30:01;11.00;71.00
4107;DHT22;21906;50.812;7.132;2023-03-26T04:32:30;10.90;70.90
4107;DHT22;21906;50.812;7.132;2023-03-26T04:34:59;10.90;71.00
4107;DHT22;21906;50.812;7.132;2023-03-26T04:37:31;10.90;71.20
4107;DHT22;21906;50.812;7.132;2023-03-26T04:40:00;10.90;71.60
4107;DHT22;21906;50.812;7.132;2023-03-26T04:42:27;10.90;71.20
4107;DHT22;21906;50.812;7.132;2023-03-26T04:44:53;10.90;70.50
4107;DHT22;21906;50.812;7.132;2023-03-26T04:47:18;11.00;70.40
4107;DHT22;21906;50.812;7.132;2023-03-26T04:49:45;10.90;70.60
4107;DHT22;21906;50.812;7.132;2023-03-26T04:52:12;11.00;70.60
4107;DHT22;21906;50.812;7.132;2023-03-26T04:54:38;11.00;71.00
4107;DHT22;21906;50.812;7.132;2023-03-26T04:57:11;10.90;71.10
4107;DHT22;21906;50.812;7.132;2023-03-26T04:59:38;10.90;71.10
4107;DHT22;21906;50.812;7.132;2023-03-26T05:02:06;10.90;71.20
4107;DHT22;21906;50.812;7.132;2023-03-26T05:04:33;10.90;71.20
4107;DHT22;21906;50.812;7.132;2023-03-26T05:06:58;11.00;71.20
4107;DHT22;21906;50.812;7.132;2023-03-26T05:09:25;10.90;71.30
4107;DHT22;21906;50.812;7.132;2023-03-26T05:11:51;10.90;71.40
4107;DHT22;21906;50.812;7.132;2023-03-26T05:14:17;11.00;71.40
4107;DHT22;21906;50.812;7.132;2023-03-26T05:16:45;11.00;71.40
4107;DHT22;21906;50.812;7.132;2023-03-26T05:19:12;11.00;71.50
4107;DHT22;21906;50.812;7.132;2023-03-26T05:21:38;10.90;71.50
4107;DHT22;21906;50.812;7.132;2023-03-26T05:24:04;10.90;71.70
4107;DHT22;21906;50.812;7.132;2023-03-26T05:26:34;10.90;71.60
4107;DHT22;21906;50.812;7.132;2023-03-26T05:29:01;10.90;71.80
4107;DHT22;21906;50.812;7.132;2023-03-26T05:31:27;10.90;72.20
4107;DHT22;21906;50.812;7.132;2023-03-26T05:33:55;10.90;72.30
4107;DHT22;21906;50.812;7.132;2023-03-26T05:36:22;10.90;72.70
4107;DHT22;21906;50.812;7.132;2023-03-26T05:38:48;10.90;72.80
4107;DHT22;21906;50.812;7.132;2023-03-26T05:41:15;10.90;72.70
4107;DHT22;21906;50.812;7.132;2023-03-26T05:43:41;10.90;72.70
4107;DHT22;21906;50.812;7.132;2023-03-26T05:46:10;10.90;73.00
4107;DHT22;21906;50.812;7.132;2023-03-26T05:48:36;10.90;73.40
4107;DHT22;21906;50.812;7.132;2023-03-26T05:51:03;10.90;73.50
4107;DHT22;21906;50.812;7.132;2023-03-26T05:53:28;10.90;73.60
4107;DHT22;21906;50.812;7.132;2023-03-26T05:55:55;10.90;73.90
4107;DHT22;21906;50.812;7.132;2023-03-26T05:58:27;10.90;74.00
4107;DHT22;21906;50.812;7.132;2023-03-26T06:01:02;10.90;74.30
4107;DHT22;21906;50.812;7.132;2023-03-26T06:03:36;10.90;74.30
4107;DHT22;21906;50.812;7.132;2023-03-26T06:06:02;10.90;74.50
4107;DHT22;21906;50.812;7.132;2023-03-26T06:08:28;10.80;74.90
4107;DHT22;21906;50.812;7.132;2023-03-26T06:11:00;10.70;75.10
4107;DHT22;21906;50.812;7.132;2023-03-26T06:13:26;10.60;75.60
4107;DHT22;21906;50.812;7.132;2023-03-26T06:15:52;10.60;75.60
4107;DHT22;21906;50.812;7.132;2023-03-26T06:18:18;10.50;75.90
4107;DHT22;21906;50.812;7.132;2023-03-26T06:20:45;10.50;76.10
4107;DHT22;21906;50.812;7.132;2023-03-26T06:23:11;10.40;76.40
4107;DHT22;21906;50.812;7.132;2023-03-26T06:25:37;10.40;76.40
4107;DHT22;21906;50.812;7.132;2023-03-26T06:28:03;10.40;76.40
4107;DHT22;21906;50.812;7.132;2023-03-26T06:30:28;10.40;77.00
4107;DHT22;21906;50.812;7.132;2023-03-26T06:32:54;10.30;77.50
4107;DHT22;21906;50.812;7.132;2023-03-26T06:35:20;10.30;77.80
4107;DHT22;21906;50.812;7.132;2023-03-26T06:37:46;10.20;78.20
4107;DHT22;21906;50.812;7.132;2023-03-26T06:40:12;10.20;78.50
4107;DHT22;21906;50.812;7.132;2023-03-26T06:42:37;10.10;78.90
4107;DHT22;21906;50.812;7.132;2023-03-26T06:45:03;10.10;78.70
4107;DHT22;21906;50.812;7.132;2023-03-26T06:47:29;10.20;78.50
4107;DHT22;21906;50.812;7.132;2023-03-26T06:49:55;10.30;78.10
4107;DHT22;21906;50.812;7.132;2023-03-26T06:52:20;10.30;77.90
4107;DHT22;21906;50.812;7.132;2023-03-26T06:54:46;10.40;77.60
4107;DHT22;21906;50.812;7.132;2023-03-26T06:57:12;10.40;77.60
4107;DHT22;21906;50.812;7.132;2023-03-26T06:59:37;10.50;77.50
4107;DHT22;21906;50.812;7.132;2023-03-26T07:02:03;10.50;77.40
4107;DHT22;21906;50.812;7.132;2023-03-26T07:04:29;10.50;77.50
4107;DHT22;21906;50.812;7.132;2023-03-26T07:06:54;10.50;77.60
4107;DHT22;21906;50.812;7.132;2023-03-26T07:09:20;10.60;77.60
4107;DHT22;21906;50.812;7.132;2023-03-26T07:11:46;10.60;77.50
4107;DHT22;21906;50.812;7.132;2023-03-26T07:14:12;10.60;77.30
4107;DHT22;21906;50.812;7.132;2023-03-26T07:16:37;10.60;77.50
4107;DHT22;21906;50.812;7.132;2023-03-26T07:19:03;10.60;77.50
4107;DHT22;21906;50.812;7.132;2023-03-26T07:21:31;10.60;77.50
4107;DHT22;21906;50.812;7.132;2023-03-26T07:23:57;10.60;77.60
4107;DHT22;21906;50.812;7.132;2023-03-26T07:26:37;10.60;77.60
4107;DHT22;21906;50.812;7.132;2023-03-26T07:29:36;10.60;77.50
4107;DHT22;21906;50.812;7.132;2023-03-26T07:34:47;10.60;77.50
4107;DHT22;21906;50.812;7.132;2023-03-26T07:37:18;10.70;77.40
4107;DHT22;21906;50.812;7.132;2023-03-26T07:47:40;10.60;77.80
4107;DHT22;21906;50.812;7.132;2023-03-26T07:50:08;10.60;78.00
4107;DHT22;21906;50.812;7.132;2023-03-26T07:52:39;10.60;78.10
4107;DHT22;21906;50.812;7.132;2023-03-26T07:55:05;10.70;78.00
4107;DHT22;21906;50.812;7.132;2023-03-26T08:00:41;10.70;78.00
4107;DHT22;21906;50.812;7.132;2023-03-26T08:05:56;10.70;78.00
4107;DHT22;21906;50.812;7.132;2023-03-26T08:13:50;10.50;78.80
4107;DHT22;21906;50.812;7.132;2023-03-26T08:21:46;10.50;79.00
4107;DHT22;21906;50.812;7.132;2023-03-26T08:24:26;10.50;78.90
4107;DHT22;21906;50.812;7.132;2023-03-26T08:27:08;10.50;79.00
4107;DHT22;21906;50.812;7.132;2023-03-26T08:32:26;10.60;78.70
4107;DHT22;21906;50.812;7.132;2023-03-26T08:34:52;10.70;78.60
4107;DHT22;21906;50.812;7.132;2023-03-26T08:37:18;10.70;78.50
4107;DHT22;21906;50.812;7.132;2023-03-26T08:39:43;10.60;78.20
4107;DHT22;21906;50.812;7.132;2023-03-26T09:03:56;10.70;76.70
4107;DHT22;21906;50.812;7.132;2023-03-26T09:23:23;10.70;74.40
4107;DHT22;21906;50.812;7.132;2023-03-26T09:31:38;10.50;75.20
4107;DHT22;21906;50.812;7.132;2023-03-26T09:42:16;10.10;76.60
4107;DHT22;21906;50.812;7.132;2023-03-26T09:53:43;10.20;76.60
4107;DHT22;21906;50.812;7.132;2023-03-26T10:10:24;10.90;76.70
4107;DHT22;21906;50.812;7.132;2023-03-26T10:18:58;10.90;77.50
4107;DHT22;21906;50.812;7.132;2023-03-26T10:38:23;11.70;74.00
4107;DHT22;21906;50.812;7.132;2023-03-26T10:41:02;11.80;74.10
4107;DHT22;21906;50.812;7.132;2023-03-26T10:51:31;11.70;74.40
4107;DHT22;21906;50.812;7.132;2023-03-26T10:56:48;11.60;75.10
4107;DHT22;21906;50.812;7.132;2023-03-26T10:59:16;11.60;75.70
4107;DHT22;21906;50.812;7.132;2023-03-26T11:01:44;11.70;75.40
4107;DHT22;21906;50.812;7.132;2023-03-26T11:04:49;11.70;75.10
4107;DHT22;21906;50.812;7.132;2023-03-26T11:12:54;11.90;74.50
4107;DHT22;21906;50.812;7.132;2023-03-26T11:15:36;11.90;74.50
4107;DHT22;21906;50.812;7.132;2023-03-26T11:23:37;12.30;74.40
4107;DHT22;21906;50.812;7.132;2023-03-26T11:34:02;12.40;74.30
4107;DHT22;21906;50.812;7.132;2023-03-26T11:36:37;12.30;74.30
4107;DHT22;21906;50.812;7.132;2023-03-26T11:39:08;12.30;74.40
4107;DHT22;21906;50.812;7.132;2023-03-26T11:41:35;12.00;75.10
4107;DHT22;21906;50.812;7.132;2023-03-26T11:46:45;11.90;75.10
4107;DHT22;21906;50.812;7.132;2023-03-26T11:49:13;12.00;75.10
4107;DHT22;21906;50.812;7.132;2023-03-26T11:51:41;12.10;74.80
4107;DHT22;21906;50.812;7.132;2023-03-26T11:54:11;11.90;75.30
4107;DHT22;21906;50.812;7.132;2023-03-26T11:59:18;11.90;75.80
4107;DHT22;21906;50.812;7.132;2023-03-26T12:02:16;11.80;77.00
4107;DHT22;21906;50.812;7.132;2023-03-26T12:04:44;11.90;75.70
4107;DHT22;21906;50.812;7.132;2023-03-26T12:07:17;11.70;75.80
4107;DHT22;21906;50.812;7.132;2023-03-26T12:10:06;11.70;71.30
4107;DHT22;21906;50.812;7.132;2023-03-26T12:12:36;11.80;68.70
4107;DHT22;21906;50.812;7.132;2023-03-26T12:15:03;11.90;66.90
4107;DHT22;21906;50.812;7.132;2023-03-26T12:17:33;11.90;65.30
4107;DHT22;21906;50.812;7.132;2023-03-26T12:19:59;11.80;64.20
4107;DHT22;21906;50.812;7.132;2023-03-26T12:22:31;11.60;65.50
4107;DHT22;21906;50.812;7.132;2023-03-26T12:28:01;11.90;66.00
4107;DHT22;21906;50.812;7.132;2023-03-26T12:30:34;11.80;65.40
4107;DHT22;21906;50.812;7.132;2023-03-26T12:33:20;11.70;65.70
4107;DHT22;21906;50.812;7.132;2023-03-26T12:35:46;11.80;64.10
4107;DHT22;21906;50.812;7.132;2023-03-26T12:40:47;11.80;65.10
4107;DHT22;21906;50.812;7.132;2023-03-26T12:43:49;11.70;65.70
4107;DHT22;21906;50.812;7.132;2023-03-26T12:46:34;11.80;66.20
4107;DHT22;21906;50.812;7.132;2023-03-26T12:49:03;11.70;67.00
4107;DHT22;21906;50.812;7.132;2023-03-26T12:51:49;11.90;66.50
4107;DHT22;21906;50.812;7.132;2023-03-26T12:54:57;11.90;67.60
4107;DHT22;21906;50.812;7.132;2023-03-26T12:57:59;11.80;68.80
4107;DHT22;21906;50.812;7.132;2023-03-26T13:06:11;12.30;67.20
4107;DHT22;21906;50.812;7.132;2023-03-26T13:14:15;12.10;68.60
4107;DHT22;21906;50.812;7.132;2023-03-26T13:19:21;12.10;68.90
4107;DHT22;21906;50.812;7.132;2023-03-26T13:22:08;12.10;66.90
4107;DHT22;21906;50.812;7.132;2023-03-26T13:25:02;12.00;68.00
4107;DHT22;21906;50.812;7.132;2023-03-26T13:27:49;12.00;67.10
4107;DHT22;21906;50.812;7.132;2023-03-26T13:43:57;11.80;69.60
4107;DHT22;21906;50.812;7.132;2023-03-26T13:49:13;11.80;70.30
4107;DHT22;21906;50.812;7.132;2023-03-26T13:54:27;11.80;71.00
4107;DHT22;21906;50.812;7.132;2023-03-26T14:02:16;11.50;73.50
4107;DHT22;21906;50.812;7.132;2023-03-26T14:04:48;11.40;74.50
4107;DHT22;21906;50.812;7.132;2023-03-26T14:07:27;11.40;75.50
4107;DHT22;21906;50.812;7.132;2023-03-26T14:10:06;11.20;76.20
4107;DHT22;21906;50.812;7.132;2023-03-26T14:18:28;11.40;75.70
4107;DHT22;21906;50.812;7.132;2023-03-26T14:34:53;11.20;77.20
4107;DHT22;21906;50.812;7.132;2023-03-26T14:45:47;11.10;77.70
4107;DHT22;21906;50.812;7.132;2023-03-26T14:48:39;11.00;77.90
4107;DHT22;21906;50.812;7.132;2023-03-26T14:51:25;10.90;78.60
4107;DHT22;21906;50.812;7.132;2023-03-26T14:53:58;11.00;78.80
4107;DHT22;21906;50.812;7.132;2023-03-26T15:22:08;12.00;77.90
4107;DHT22;21906;50.812;7.132;2023-03-26T15:24:55;12.10;76.60
4107;DHT22;21906;50.812;7.132;2023-03-26T15:41:22;11.90;74.20
4107;DHT22;21906;50.812;7.132;2023-03-26T15:49:04;11.70;74.40
4107;DHT22;21906;50.812;7.132;2023-03-26T15:51:57;11.80;74.30
4107;DHT22;21906;50.812;7.132;2023-03-26T15:54:53;11.90;75.00
4107;DHT22;21906;50.812;7.132;2023-03-26T16:00:23;12.00;73.60
4107;DHT22;21906;50.812;7.132;2023-03-26T16:10:57;11.60;72.60
4107;DHT22;21906;50.812;7.132;2023-03-26T16:18:54;11.40;73.00
4107;DHT22;21906;50.812;7.132;2023-03-26T16:24:10;11.20;73.10
4107;DHT22;21906;50.812;7.132;2023-03-26T16:29:23;11.20;73.10
4107;DHT22;21906;50.812;7.132;2023-03-26T16:37:34;11.00;72.70
4107;DHT22;21906;50.812;7.132;2023-03-26T16:48:39;10.60;73.60
4107;DHT22;21906;50.812;7.132;2023-03-26T16:51:26;10.50;73.20
4107;DHT22;21906;50.812;7.132;2023-03-26T16:56:36;10.60;72.70
4107;DHT22;21906;50.812;7.132;2023-03-26T17:02:30;10.60;72.50
4107;DHT22;21906;50.812;7.132;2023-03-26T17:11:20;10.40;72.60
4107;DHT22;21906;50.812;7.132;2023-03-26T17:19:15;10.30;73.00
4107;DHT22;21906;50.812;7.132;2023-03-26T17:21:58;10.20;72.80
4107;DHT22;21906;50.812;7.132;2023-03-26T17:24:54;10.20;73.50
4107;DHT22;21906;50.812;7.132;2023-03-26T17:33:28;10.10;74.20
4107;DHT22;21906;50.812;7.132;2023-03-26T17:41:04;10.10;74.00
4107;DHT22;21906;50.812;7.132;2023-03-26T17:43:37;10.00;73.90
4107;DHT22;21906;50.812;7.132;2023-03-26T17:46:43;10.00;74.40
4107;DHT22;21906;50.812;7.132;2023-03-26T17:51:53;9.90;74.70
4107;DHT22;21906;50.812;7.132;2023-03-26T17:54:33;9.90;74.90
4107;DHT22;21906;50.812;7.132;2023-03-26T17:57:26;9.90;75.40
4107;DHT22;21906;50.812;7.132;2023-03-26T17:59:55;9.80;76.00
4107;DHT22;21906;50.812;7.132;2023-03-26T18:02:34;9.80;76.00
4107;DHT22;21906;50.812;7.132;2023-03-26T18:05:03;9.80;75.60
4107;DHT22;21906;50.812;7.132;2023-03-26T18:18:42;9.50;77.10
4107;DHT22;21906;50.812;7.132;2023-03-26T18:21:18;9.50;77.50
4107;DHT22;21906;50.812;7.132;2023-03-26T18:23:48;9.60;77.30
4107;DHT22;21906;50.812;7.132;2023-03-26T18:26:30;9.70;77.50
4107;DHT22;21906;50.812;7.132;2023-03-26T18:29:18;9.70;77.70
4107;DHT22;21906;50.812;7.132;2023-03-26T18:31:45;9.70;77.80
4107;DHT22;21906;50.812;7.132;2023-03-26T18:34:15;9.60;77.80
4107;DHT22;21906;50.812;7.132;2023-03-26T18:39:30;9.60;78.00
4107;DHT22;21906;50.812;7.132;2023-03-26T18:41:57;9.60;77.60
4107;DHT22;21906;50.812;7.132;2023-03-26T18:44:22;9.60;77.50
4107;DHT22;21906;50.812;7.132;2023-03-26T18:46:51;9.50;77.60
4107;DHT22;21906;50.812;7.132;2023-03-26T18:49:19;9.40;76.50
4107;DHT22;21906;50.812;7.132;2023-03-26T18:51:46;9.40;76.90
4107;DHT22;21906;50.812;7.132;2023-03-26T18:54:19;9.30;76.80
4107;DHT22;21906;50.812;7.132;2023-03-26T18:56:46;9.30;76.10
4107;DHT22;21906;50.812;7.132;2023-03-26T18:59:28;9.40;76.30
4107;DHT22;21906;50.812;7.132;2023-03-26T19:01:57;9.40;76.70
4107;DHT22;21906;50.812;7.132;2023-03-26T19:04:27;9.20;76.10
4107;DHT22;21906;50.812;7.132;2023-03-26T19:06:56;9.20;75.90
4107;DHT22;21906;50.812;7.132;2023-03-26T19:09:23;9.10;76.00
4107;DHT22;21906;50.812;7.132;2023-03-26T19:11:53;9.20;75.80
4107;DHT22;21906;50.812;7.132;2023-03-26T19:14:20;9.20;75.90
4107;DHT22;21906;50.812;7.132;2023-03-26T19:16:52;9.30;76.10
4107;DHT22;21906;50.812;7.132;2023-03-26T19:19:24;9.40;75.40
4107;DHT22;21906;50.812;7.132;2023-03-26T19:21:50;9.30;75.30
4107;DHT22;21906;50.812;7.132;2023-03-26T19:24:18;9.30;75.30
4107;DHT22;21906;50.812;7.132;2023-03-26T19:26:46;9.30;75.20
4107;DHT22;21906;50.812;7.132;2023-03-26T19:29:14;9.30;75.50
4107;DHT22;21906;50.812;7.132;2023-03-26T19:31:41;9.30;75.90
4107;DHT22;21906;50.812;7.132;2023-03-26T19:36:58;9.40;75.80
4107;DHT22;21906;50.812;7.132;2023-03-26T19:42:05;9.30;74.90
4107;DHT22;21906;50.812;7.132;2023-03-26T19:44:32;9.20;75.20
4107;DHT22;21906;50.812;7.132;2023-03-26T19:47:17;9.30;75.30
4107;DHT22;21906;50.812;7.132;2023-03-26T19:49:50;9.20;74.30
4107;DHT22;21906;50.812;7.132;2023-03-26T19:52:25;9.20;74.80
4107;DHT22;21906;50.812;7.132;2023-03-26T19:55:02;9.10;75.00
4107;DHT22;21906;50.812;7.132;2023-03-26T19:57:30;9.00;74.10
4107;DHT22;21906;50.812;7.132;2023-03-26T20:00:06;9.00;74.70
4107;DHT22;21906;50.812;7.132;2023-03-26T20:02:41;9.00;74.60
4107;DHT22;21906;50.812;7.132;2023-03-26T20:05:28;8.90;74.20
4107;DHT22;21906;50.812;7.132;2023-03-26T20:07:58;9.00;73.40
4107;DHT22;21906;50.812;7.132;2023-03-26T20:10:25;8.90;72.50
4107;DHT22;21906;50.812;7.132;2023-03-26T20:12:51;8.80;73.30
4107;DHT22;21906;50.812;7.132;2023-03-26T20:15:17;8.80;72.40
4107;DHT22;21906;50.812;7.132;2023-03-26T20:17:44;8.70;72.00
4107;DHT22;21906;50.812;7.132;2023-03-26T20:20:11;8.80;71.80
4107;DHT22;21906;50.812;7.132;2023-03-26T20:22:37;8.80;70.80
4107;DHT22;21906;50.812;7.132;2023-03-26T20:25:18;8.80;70.10
4107;DHT22;21906;50.812;7.132;2023-03-26T20:27:44;8.90;70.80
4107;DHT22;21906;50.812;7.132;2023-03-26T20:30:11;8.70;70.60
4107;DHT22;21906;50.812;7.132;2023-03-26T20:32:39;8.80;70.50
4107;DHT22;21906;50.812;7.132;2023-03-26T20:35:17;8.80;70.50
4107;DHT22;21906;50.812;7.132;2023-03-26T20:37:46;8.80;70.20
4107;DHT22;21906;50.812;7.132;2023-03-26T20:40:12;8.70;69.70
4107;DHT22;21906;50.812;7.132;2023-03-26T20:42:39;8.70;70.10
4107;DHT22;21906;50.812;7.132;2023-03-26T20:47:39;8.90;69.10
4107;DHT22;21906;50.812;7.132;2023-03-26T20:50:05;8.80;69.60
4107;DHT22;21906;50.812;7.132;2023-03-26T20:52:31;8.80;69.90
4107;DHT22;21906;50.812;7.132;2023-03-26T20:54:56;8.90;68.80
4107;DHT22;21906;50.812;7.132;2023-03-26T20:57:23;8.90;68.80
4107;DHT22;21906;50.812;7.132;2023-03-26T20:59:50;8.80;68.50
4107;DHT22;21906;50.812;7.132;2023-03-26T21:02:18;8.80;67.20
4107;DHT22;21906;50.812;7.132;2023-03-26T21:04:44;8.70;66.80
4107;DHT22;21906;50.812;7.132;2023-03-26T21:07:13;8.70;66.50
4107;DHT22;21906;50.812;7.132;2023-03-26T21:09:39;8.70;65.70
4107;DHT22;21906;50.812;7.132;2023-03-26T21:12:08;8.50;66.70
4107;DHT22;21906;50.812;7.132;2023-03-26T21:14:40;8.50;66.40
4107;DHT22;21906;50.812;7.132;2023-03-26T21:17:13;8.50;65.80
4107;DHT22;21906;50.812;7.132;2023-03-26T21:19:40;8.50;66.60
4107;DHT22;21906;50.812;7.132;2023-03-26T21:30:13;8.40;66.70
4107;DHT22;21906;50.812;7.132;2023-03-26T21:32:42;8.40;67.20
4107;DHT22;21906;50.812;7.132;2023-03-26T21:35:13;8.40;66.40
4107;DHT22;21906;50.812;7.132;2023-03-26T21:37:43;8.40;67.10
4107;DHT22;21906;50.812;7.132;2023-03-26T21:40:11;8.40;67.60
4107;DHT22;21906;50.812;7.132;2023-03-26T21:42:42;8.50;68.50
4107;DHT22;21906;50.812;7.132;2023-03-26T21:45:09;8.60;67.20
4107;DHT22;21906;50.812;7.132;2023-03-26T21:47:35;8.50;67.90
4107;DHT22;21906;50.812;7.132;2023-03-26T21:50:01;8.50;68.30
4107;DHT22;21906;50.812;7.132;2023-03-26T21:52:27;8.40;67.50
4107;DHT22;21906;50.812;7.132;2023-03-26T21:54:53;8.40;67.20
4107;DHT22;21906;50.812;7.132;2023-03-26T21:57:31;8.30;66.20
4107;DHT22;21906;50.812;7.132;2023-03-26T22:00:05;8.40;66.60
4107;DHT22;21906;50.812;7.132;2023-03-26T22:03:24;8.40;65.10
4107;DHT22;21906;50.812;7.132;2023-03-26T22:08:29;8.10;64.20
4107;DHT22;21906;50.812;7.132;2023-03-26T22:10:55;8.10;62.30
4107;DHT22;21906;50.812;7.132;2023-03-26T22:13:21;8.10;63.40
4107;DHT22;21906;50.812;7.132;2023-03-26T22:15:46;8.00;62.40
4107;DHT22;21906;50.812;7.132;2023-03-26T22:18:12;7.90;61.80
4107;DHT22;21906;50.812;7.132;2023-03-26T22:20:39;7.80;61.50
4107;DHT22;21906;50.812;7.132;2023-03-26T22:23:07;7.80;61.40
4107;DHT22;21906;50.812;7.132;2023-03-26T22:25:34;7.80;61.10
4107;DHT22;21906;50.812;7.132;2023-03-26T22:27:59;7.80;62.00
4107;DHT22;21906;50.812;7.132;2023-03-26T22:30:25;7.70;61.30
4107;DHT22;21906;50.812;7.132;2023-03-26T22:32:51;7.70;61.20
4107;DHT22;21906;50.812;7.132;2023-03-26T22:35:18;7.80;60.70
4107;DHT22;21906;50.812;7.132;2023-03-26T22:37:44;7.80;59.30
4107;DHT22;21906;50.812;7.132;2023-03-26T22:40:10;7.70;59.10
4107;DHT22;21906;50.812;7.132;2023-03-26T22:42:38;7.60;59.50
4107;DHT22;21906;50.812;7.132;2023-03-26T22:45:04;7.50;59.20
4107;DHT22;21906;50.812;7.132;2023-03-26T22:47:30;7.50;60.10
4107;DHT22;21906;50.812;7.132;2023-03-26T22:49:58;7.40;59.50
4107;DHT22;21906;50.812;7.132;2023-03-26T22:52:23;7.40;60.00